Batavia, NY

10:31 PM EDT on August 04, 2015 (GMT -0400)
Violet Ln. | | Change Station
CLOSE
Current Station
Personal Weather Station
Location: Batavia, NY
Elevation: 893 ft
Nearby Weather Stations

Elev 893 ft 43.01 °N, 78.15 °W | Updated 1 minute ago

Overcast
Overcast
60.8 °F
Feels Like 60.8 °F
N
0.0
Wind Variable Wind from SSW
Gusts 2.7 mph

Today
High -- | Low -- °F
--% Chance of Precip.
Yesterday
High -- | Low -- °F
Precip. -- in
6:06 AM 8:30 PM
Waning Gibbous, 72% visible
Pressure 29.91 in
Visibility 10.0 miles
Clouds Few 2400 ft
Few 5500 ft
Scattered Clouds 9500 ft
Mostly Cloudy 13000 ft
Dew Point 59 °F
Humidity 95%
Rainfall 0.00 in
Snow Depth Not available.
UV 0 out of 12
Pollen 7.30 out of 12
Air Quality Not available.
Flu Activity Not available.
METAR KBUF 050154Z 28004KT 10SM FEW024 FEW055 SCT095 BKN130 19/16 A2992 RMK AO2 SLP128 CONS LTGICCGCC DSNT SE-S CB DSNT SE-S MOV E T01940156 $

More Conditions Fewer Conditions

Pressure 29.91 in
Visibility 10.0 miles
Clouds Few 2400 ft
Few 5500 ft
Scattered Clouds 9500 ft
Mostly Cloudy 13000 ft
Dew Point 59 °F
Humidity 95%
Rainfall 0.00 in
Snow Depth Not available.
UV 0 out of 12
Pollen 7.30 out of 12
Air Quality Not available.
Flu Activity Not available.
METAR KBUF 050154Z 28004KT 10SM FEW024 FEW055 SCT095 BKN130 19/16 A2992 RMK AO2 SLP128 CONS LTGICCGCC DSNT SE-S CB DSNT SE-S MOV E T01940156 $

More Conditions Fewer Conditions

10-Day Weather Forecast

×

Almanac

Astronomy

Aug. 04, 2015 Rise Set
Actual Time
Civil Twilight
Nautical Twilight
Astronomical Twilight
Moon
Length of Visible Light
Length of Day
Tomorrow will be .
, % of the Moon is Illuminated

Today's Extremes

State Highs State Lows

Community

WunderPhotos

Upload Photos

1,844,087 photos uploaded!

WunderBlogs® & News

Nearby

Air Quality

  Air Quality AQ Index Pollutant
Not available.

Snow Depth

Station Depth Elevation

Earthquake Activity

City Distance Mag. Time & Date
Minimum magnitude displayed is 2.5.

Coastal Water Temperatures

Place Temperature

Stations

Nearby Weather Stations

Station Location Temp. Windchill Dew Point Humidity Wind Precip. Elev Updated Type